KRTN/RTN METAR and TAF weather

Enter ICAO airport designator
Station Type Date Time Source
KRTN METAR 2019/04/18 10:32 UTC NOAA

KRTN 181032Z AUTO 04017G24KT 10SM -RA SCT020 BKN030 OVC065 04/01 A3011 RMK AO2 P0003 T00440006


Station Type Date Time Source
KRTN Decoded METAR 2019/04/18 10:32 UTC NOAA

Raton, Raton Municipal \ Crews Field Airport, NM, United States (KRTN) 36-44-31N 104-39-28W 1939M
Apr 18, 2019 - 06:32 AM EDT / 2019.04.18 1032 UTC
Wind: from the NE (040 degrees) at 20 MPH (17 KT) gusting to 28 MPH (24 KT):0
Visibility: 10 mile(s):0
Sky conditions: overcast
Weather: light rain
Precipitation last hour: 0.03 inches
Temperature: 39.9 F (4.4 C)
Dew Point: 33.1 F (0.6 C)
Relative Humidity: 76%
Pressure (altimeter): 30.11 in. Hg (1019 hPa)
ob: KRTN 181032Z AUTO 04017G24KT 10SM -RA SCT020 BKN030 OVC065 04/01 A3011 RMK AO2 P0003 T00440006
cycle: 10

Station Type Date Time Source
KRTN TAF UTC NOAA

Error!

Example: see airport list